createdAt,value
2019-05-31T00:00:17.330Z,0.00
2019-05-31T00:02:17.421Z,0.00
2019-05-31T00:03:17.736Z,0.00
2019-05-31T00:04:17.478Z,0.00
2019-05-31T00:05:17.502Z,0.00
2019-05-31T00:06:17.534Z,0.00
2019-05-31T00:07:17.587Z,0.00
2019-05-31T00:08:17.612Z,0.00
2019-05-31T00:09:17.669Z,0.00
2019-05-31T00:10:17.971Z,0.00
2019-05-31T00:11:17.709Z,0.00
2019-05-31T00:12:17.838Z,0.00
2019-05-31T00:13:17.775Z,0.00
2019-05-31T00:14:20.719Z,0.00
2019-05-31T00:16:17.874Z,0.00
2019-05-31T00:17:18.218Z,0.00
2019-05-31T00:18:17.943Z,0.00
2019-05-31T00:19:17.984Z,0.00
2019-05-31T00:20:18.011Z,0.00
2019-05-31T00:21:18.051Z,0.00
2019-05-31T00:22:18.080Z,0.00
2019-05-31T00:23:18.116Z,0.00
2019-05-31T00:24:18.459Z,0.00
2019-05-31T00:25:18.189Z,0.00
2019-05-31T00:26:18.228Z,0.00
2019-05-31T00:27:18.256Z,0.00
2019-05-31T00:28:18.295Z,0.00
2019-05-31T00:29:18.317Z,0.00
2019-05-31T00:30:18.354Z,0.00
2019-05-31T00:32:18.725Z,0.00
2019-05-31T00:33:18.558Z,0.00
2019-05-31T00:34:18.444Z,0.00
2019-05-31T00:35:18.620Z,0.00
2019-05-31T00:36:18.561Z,0.00
2019-05-31T00:37:18.589Z,0.00
2019-05-31T00:38:18.723Z,0.00
2019-05-31T00:39:18.962Z,0.00
2019-05-31T00:40:21.066Z,0.00
2019-05-31T00:41:18.728Z,0.00
2019-05-31T00:42:18.846Z,0.00
2019-05-31T00:43:18.904Z,0.00
2019-05-31T00:44:32.076Z,0.00
2019-05-31T00:45:18.872Z,0.00
2019-05-31T00:46:19.198Z,0.00
2019-05-31T00:47:18.927Z,0.00
2019-05-31T00:48:18.966Z,0.00
2019-05-31T00:49:19.002Z,0.00
2019-05-31T00:50:19.035Z,0.00
2019-05-31T00:51:19.063Z,0.00
2019-05-31T00:52:19.097Z,0.00
2019-05-31T00:53:19.434Z,0.00
2019-05-31T00:55:19.200Z,0.00
2019-05-31T00:56:19.238Z,0.00
2019-05-31T00:57:19.268Z,0.00
2019-05-31T00:58:19.302Z,0.00
2019-05-31T00:59:19.342Z,0.00
2019-05-31T01:00:19.673Z,0.00
2019-05-31T01:01:19.407Z,0.00
2019-05-31T01:02:19.440Z,0.00
2019-05-31T01:03:19.480Z,0.00
2019-05-31T01:04:19.615Z,0.00
2019-05-31T01:05:19.568Z,0.00
2019-05-31T01:06:19.523Z,0.00
2019-05-31T01:07:19.922Z,0.00
2019-05-31T01:08:19.650Z,0.00
2019-05-31T01:09:19.688Z,0.00
2019-05-31T01:10:19.719Z,0.00
2019-05-31T01:11:19.745Z,0.00
2019-05-31T01:12:19.786Z,0.00
2019-05-31T01:13:19.918Z,0.00
2019-05-31T01:14:20.146Z,0.00
2019-05-31T01:15:19.882Z,0.00
2019-05-31T01:16:19.914Z,0.00
2019-05-31T01:17:19.950Z,0.00
2019-05-31T01:18:19.990Z,0.00
2019-05-31T01:19:20.025Z,0.00
2019-05-31T01:20:20.059Z,0.00
2019-05-31T01:21:20.390Z,0.00
2019-05-31T01:23:20.153Z,0.00
2019-05-31T01:24:20.290Z,0.00
2019-05-31T01:26:20.258Z,0.00
2019-05-31T01:28:20.639Z,0.00
2019-05-31T01:29:20.359Z,0.00
2019-05-31T01:30:20.399Z,0.00
2019-05-31T01:31:20.436Z,0.00
2019-05-31T01:32:20.468Z,0.00
2019-05-31T01:33:20.497Z,0.00
2019-05-31T01:34:20.528Z,0.00
2019-05-31T01:35:20.898Z,0.00
2019-05-31T01:36:20.603Z,0.00
2019-05-31T01:37:20.633Z,0.00
2019-05-31T01:38:20.771Z,0.00
2019-05-31T01:39:20.807Z,0.00
2019-05-31T01:40:21.039Z,0.00
2019-05-31T01:41:20.797Z,0.00
2019-05-31T01:42:21.108Z,0.00
2019-05-31T01:43:20.844Z,0.00
2019-05-31T01:44:20.877Z,0.00
2019-05-31T01:45:20.903Z,0.00
2019-05-31T01:46:21.065Z,0.00
2019-05-31T01:47:20.977Z,0.00
2019-05-31T01:48:21.013Z,0.00
2019-05-31T01:49:21.340Z,0.00
2019-05-31T01:50:21.096Z,0.00
2019-05-31T01:51:21.112Z,0.00
2019-05-31T01:52:21.157Z,0.00
2019-05-31T01:53:21.185Z,0.00
2019-05-31T01:54:21.218Z,0.00
2019-05-31T01:55:21.549Z,0.00
2019-05-31T01:56:21.279Z,0.00
2019-05-31T01:57:21.311Z,0.00
2019-05-31T01:58:21.347Z,0.00
2019-05-31T01:59:21.390Z,0.00
2019-05-31T02:00:21.514Z,0.00
2019-05-31T02:01:21.752Z,0.00
2019-05-31T02:02:21.488Z,0.00
2019-05-31T02:03:21.623Z,0.00
2019-05-31T02:04:21.556Z,0.00
2019-05-31T02:05:21.599Z,0.00
2019-05-31T02:06:21.640Z,0.00
2019-05-31T02:07:21.955Z,0.00
2019-05-31T02:08:21.693Z,0.00
2019-05-31T02:09:21.729Z,0.00
2019-05-31T02:10:21.759Z,0.00
2019-05-31T02:11:21.893Z,0.00
2019-05-31T02:12:21.828Z,0.00
2019-05-31T02:13:21.878Z,0.00
2019-05-31T02:14:22.295Z,0.00
2019-05-31T02:15:31.676Z,0.00
2019-05-31T02:16:21.965Z,0.00
2019-05-31T02:17:22.009Z,0.00
2019-05-31T02:18:22.031Z,0.00
2019-05-31T02:19:22.068Z,0.00
2019-05-31T02:20:22.099Z,0.00
2019-05-31T02:21:22.454Z,0.00
2019-05-31T02:23:22.205Z,0.00
2019-05-31T02:24:22.247Z,0.00
2019-05-31T02:25:22.289Z,0.00
2019-05-31T02:26:22.330Z,0.00
2019-05-31T02:27:22.337Z,0.00
2019-05-31T02:28:22.693Z,0.00
2019-05-31T02:29:22.408Z,0.00
2019-05-31T02:30:22.440Z,0.00
2019-05-31T02:31:22.484Z,0.00
2019-05-31T02:32:22.507Z,0.00
2019-05-31T02:33:22.548Z,0.00
2019-05-31T02:34:22.573Z,0.00
2019-05-31T02:35:22.909Z,0.00
2019-05-31T02:36:22.660Z,0.00
2019-05-31T02:37:22.683Z,0.00
2019-05-31T02:38:22.723Z,0.00
2019-05-31T02:39:22.752Z,0.00
2019-05-31T02:40:22.807Z,0.00
2019-05-31T02:42:23.148Z,0.00
2019-05-31T02:43:22.888Z,0.00
2019-05-31T02:44:22.930Z,0.00
2019-05-31T02:45:23.159Z,0.00
2019-05-31T02:46:22.992Z,0.00
2019-05-31T02:47:23.030Z,0.00
2019-05-31T02:48:23.056Z,0.00
2019-05-31T02:49:23.397Z,0.00
2019-05-31T02:50:23.124Z,0.00
2019-05-31T02:51:23.159Z,0.00
2019-05-31T02:52:23.188Z,0.00
2019-05-31T02:53:23.222Z,0.00
2019-05-31T02:54:23.272Z,0.00
2019-05-31T02:55:23.292Z,0.00
2019-05-31T02:56:23.632Z,0.00
2019-05-31T02:57:23.373Z,0.00
2019-05-31T02:58:23.402Z,4.00
2019-05-31T02:59:23.450Z,4.00
2019-05-31T03:00:23.483Z,4.00
2019-05-31T03:01:23.498Z,0.00
2019-05-31T03:02:23.532Z,4.00
2019-05-31T03:03:23.874Z,4.00
2019-05-31T03:04:23.606Z,8.00
2019-05-31T03:05:23.639Z,4.00
2019-05-31T03:06:23.667Z,4.00
2019-05-31T03:07:23.704Z,8.00
2019-05-31T03:08:23.735Z,8.00
2019-05-31T03:09:23.774Z,12.00
2019-05-31T03:11:24.144Z,12.00
2019-05-31T03:12:23.890Z,12.00
2019-05-31T03:13:23.913Z,16.00
2019-05-31T03:14:23.947Z,16.00
2019-05-31T03:15:24.300Z,20.00
2019-05-31T03:16:24.008Z,20.00
2019-05-31T03:17:24.045Z,20.00
2019-05-31T03:18:24.415Z,24.00
2019-05-31T03:19:24.120Z,28.00
2019-05-31T03:23:24.257Z,36.00
2019-05-31T03:24:24.291Z,36.00
2019-05-31T03:25:24.627Z,40.00
2019-05-31T03:26:24.457Z,44.00
2019-05-31T03:27:24.388Z,48.00
2019-05-31T03:28:24.618Z,52.00
2019-05-31T03:29:24.472Z,60.00
2019-05-31T03:30:34.730Z,60.00
2019-05-31T03:31:34.111Z,68.00
2019-05-31T03:32:33.698Z,72.00
2019-05-31T03:33:34.113Z,76.00
2019-05-31T03:35:32.545Z,80.00
2019-05-31T03:37:24.729Z,84.00
2019-05-31T03:38:24.759Z,84.00
2019-05-31T03:39:26.689Z,88.00
2019-05-31T03:41:24.963Z,100.00
2019-05-31T03:42:24.900Z,104.00
2019-05-31T03:43:24.966Z,108.00
2019-05-31T03:45:25.002Z,116.00
2019-05-31T03:46:39.599Z,120.00
2019-05-31T03:47:25.178Z,128.00
2019-05-31T03:48:25.113Z,128.00
2019-05-31T03:49:25.151Z,132.00
2019-05-31T03:50:25.518Z,132.00
2019-05-31T03:52:25.242Z,140.00
2019-05-31T03:53:27.391Z,148.00
2019-05-31T03:54:25.358Z,156.00
2019-05-31T03:55:27.152Z,164.00
2019-05-31T03:56:25.379Z,172.00
2019-05-31T03:57:25.416Z,184.00
2019-05-31T03:58:25.444Z,204.00
2019-05-31T03:59:25.482Z,228.00
2019-05-31T04:00:25.814Z,244.00
2019-05-31T04:01:25.664Z,256.00
2019-05-31T04:02:26.271Z,268.00
2019-05-31T04:03:27.850Z,276.00
2019-05-31T04:04:26.314Z,284.00
2019-05-31T04:05:27.030Z,292.00
2019-05-31T04:07:26.905Z,304.00
2019-05-31T04:08:27.984Z,308.00
2019-05-31T04:09:31.111Z,312.00
2019-05-31T04:10:26.552Z,308.00
2019-05-31T04:11:27.599Z,308.00
2019-05-31T04:12:26.859Z,308.00
2019-05-31T04:13:27.361Z,312.00
2019-05-31T04:14:27.668Z,312.00
2019-05-31T04:15:27.481Z,320.00
2019-05-31T04:16:32.304Z,328.00
2019-05-31T04:17:27.612Z,328.00
2019-05-31T04:18:33.532Z,328.00
2019-05-31T04:19:26.162Z,324.00
2019-05-31T04:21:26.229Z,324.00
2019-05-31T04:22:26.266Z,332.00
2019-05-31T04:23:27.176Z,348.00
2019-05-31T04:24:26.511Z,372.00
2019-05-31T04:25:27.177Z,396.00
2019-05-31T04:26:26.397Z,416.00
2019-05-31T04:27:27.032Z,436.00
2019-05-31T04:28:27.390Z,444.00
2019-05-31T04:29:26.771Z,456.00
2019-05-31T04:30:26.537Z,472.00
2019-05-31T04:31:26.564Z,480.00
2019-05-31T04:32:27.037Z,496.00
2019-05-31T04:33:27.161Z,504.00
2019-05-31T04:34:32.260Z,520.00
2019-05-31T04:35:27.149Z,524.00
2019-05-31T04:36:27.140Z,528.00
2019-05-31T04:37:26.775Z,536.00
2019-05-31T04:38:27.669Z,544.00
2019-05-31T04:39:27.137Z,552.00
2019-05-31T04:40:27.053Z,564.00
2019-05-31T04:41:27.237Z,576.00
2019-05-31T04:42:27.449Z,584.00
2019-05-31T04:43:26.976Z,588.00
2019-05-31T04:44:27.015Z,600.00
2019-05-31T04:45:27.052Z,608.00
2019-05-31T04:46:27.843Z,608.00
2019-05-31T04:47:27.452Z,612.00
2019-05-31T04:48:27.754Z,628.00
2019-05-31T04:49:27.195Z,644.00
2019-05-31T04:50:27.908Z,652.00
2019-05-31T04:52:27.385Z,672.00
2019-05-31T04:53:27.842Z,692.00
2019-05-31T04:54:27.356Z,712.00
2019-05-31T04:55:27.380Z,728.00
2019-05-31T04:56:27.493Z,744.00
2019-05-31T04:57:27.457Z,748.00
2019-05-31T04:58:30.247Z,748.00
2019-05-31T04:59:27.890Z,760.00
2019-05-31T05:00:28.530Z,768.00
2019-05-31T05:01:27.589Z,768.00
2019-05-31T05:02:28.219Z,772.00
2019-05-31T05:03:30.043Z,784.00
2019-05-31T05:04:27.686Z,780.00
2019-05-31T05:05:27.730Z,784.00
2019-05-31T05:06:27.757Z,792.00
2019-05-31T05:07:27.793Z,796.00
2019-05-31T05:08:27.846Z,812.00
2019-05-31T05:09:31.852Z,832.00
2019-05-31T05:10:27.898Z,856.00
2019-05-31T05:11:27.926Z,880.00
2019-05-31T05:12:28.259Z,900.00
2019-05-31T05:13:28.304Z,920.00
2019-05-31T05:14:28.048Z,944.00
2019-05-31T05:15:28.062Z,968.00
2019-05-31T05:17:40.065Z,1024.00
2019-05-31T05:19:28.202Z,1044.00
2019-05-31T05:20:28.545Z,1064.00
2019-05-31T05:21:28.270Z,1096.00
2019-05-31T05:22:28.329Z,1116.00
2019-05-31T05:23:28.365Z,1128.00
2019-05-31T05:24:28.384Z,1148.00
2019-05-31T05:25:28.424Z,1164.00
2019-05-31T05:26:28.743Z,1164.00
2019-05-31T05:27:28.476Z,1160.00
2019-05-31T05:28:28.512Z,1168.00
2019-05-31T05:29:28.545Z,1184.00
2019-05-31T05:32:28.641Z,1240.00
2019-05-31T05:33:29.048Z,1272.00
2019-05-31T05:34:28.716Z,1272.00
2019-05-31T05:35:28.748Z,1284.00
2019-05-31T05:36:28.785Z,1300.00
2019-05-31T05:37:28.817Z,1316.00
2019-05-31T05:38:29.153Z,1336.00
2019-05-31T05:39:28.979Z,1364.00
2019-05-31T05:40:29.055Z,1396.00
2019-05-31T05:41:30.015Z,1416.00
2019-05-31T05:42:29.245Z,1404.00
2019-05-31T05:43:29.477Z,1404.00
2019-05-31T05:44:29.393Z,1424.00
2019-05-31T05:45:29.775Z,1428.00
2019-05-31T05:46:29.495Z,1416.00
2019-05-31T05:47:46.553Z,1440.00
2019-05-31T05:48:29.808Z,1468.00
2019-05-31T05:49:29.823Z,1496.00
2019-05-31T05:50:29.887Z,1504.00
2019-05-31T05:51:30.171Z,1508.00
2019-05-31T05:52:30.357Z,1504.00
2019-05-31T05:53:30.512Z,1484.00
2019-05-31T05:54:30.579Z,1440.00
2019-05-31T05:55:30.738Z,1392.00
2019-05-31T05:56:33.202Z,1404.00
2019-05-31T05:57:29.506Z,1336.00
2019-05-31T05:58:30.243Z,1304.00
2019-05-31T05:59:29.608Z,1280.00
2019-05-31T06:00:29.872Z,1292.00
2019-05-31T06:01:29.645Z,1344.00
2019-05-31T06:02:29.696Z,1412.00
2019-05-31T06:03:29.812Z,1396.00
2019-05-31T06:04:30.055Z,1340.00
2019-05-31T06:05:30.095Z,1280.00
2019-05-31T06:06:30.286Z,1224.00
2019-05-31T06:07:30.426Z,1180.00
2019-05-31T06:08:33.623Z,1192.00
2019-05-31T06:09:30.544Z,1240.00
2019-05-31T06:10:30.690Z,1288.00
2019-05-31T06:11:31.917Z,1392.00
2019-05-31T06:12:31.043Z,1216.00
2019-05-31T06:13:30.476Z,1128.00
2019-05-31T06:14:30.491Z,1104.00
2019-05-31T06:15:30.224Z,1128.00
2019-05-31T06:16:46.259Z,1180.00
2019-05-31T06:17:30.302Z,1160.00
2019-05-31T06:18:30.402Z,1124.00
2019-05-31T06:19:30.462Z,1084.00
2019-05-31T06:20:30.987Z,1084.00
2019-05-31T06:21:30.865Z,1100.00
2019-05-31T06:22:33.274Z,1128.00
2019-05-31T06:23:30.756Z,1116.00
2019-05-31T06:24:30.707Z,1100.00
2019-05-31T06:25:33.128Z,1060.00
2019-05-31T06:26:30.639Z,1052.00
2019-05-31T06:27:30.618Z,1072.00
2019-05-31T06:28:30.807Z,1072.00
2019-05-31T06:29:30.759Z,1056.00
2019-05-31T06:30:30.852Z,1032.00
2019-05-31T06:31:30.803Z,1028.00
2019-05-31T06:32:30.999Z,1032.00
2019-05-31T06:33:31.052Z,1048.00
2019-05-31T06:34:30.988Z,1080.00
2019-05-31T06:36:31.140Z,1260.00
2019-05-31T06:37:30.921Z,1160.00
2019-05-31T06:38:31.125Z,1228.00
2019-05-31T06:39:31.050Z,1140.00
2019-05-31T06:40:32.462Z,1112.00
2019-05-31T06:41:32.258Z,1116.00
2019-05-31T06:42:34.014Z,1132.00
2019-05-31T06:43:35.163Z,1048.00
2019-05-31T06:44:31.301Z,1032.00
2019-05-31T06:45:31.160Z,1036.00
2019-05-31T06:46:32.008Z,1080.00
2019-05-31T06:47:31.222Z,1080.00
2019-05-31T06:48:31.749Z,1060.00
2019-05-31T06:49:31.291Z,1088.00
2019-05-31T06:50:35.287Z,1100.00
2019-05-31T06:52:32.218Z,1080.00
2019-05-31T06:53:31.532Z,1052.00
2019-05-31T06:54:33.491Z,1052.00
2019-05-31T06:55:31.574Z,1020.00
2019-05-31T06:56:31.775Z,1076.00
2019-05-31T06:57:32.060Z,1064.00
2019-05-31T06:58:32.027Z,1088.00
2019-05-31T06:59:32.202Z,1072.00
2019-05-31T07:00:33.168Z,1112.00
2019-05-31T07:01:32.493Z,1132.00
2019-05-31T07:02:32.281Z,1128.00
2019-05-31T07:03:32.946Z,1128.00
2019-05-31T07:04:32.948Z,1128.00
2019-05-31T07:05:31.944Z,1124.00
2019-05-31T07:06:32.772Z,1124.00
2019-05-31T07:07:37.788Z,1120.00
2019-05-31T07:08:33.044Z,1120.00
2019-05-31T07:09:32.708Z,1120.00
2019-05-31T07:10:33.224Z,1124.00
2019-05-31T07:11:33.436Z,1124.00
2019-05-31T07:12:32.078Z,1132.00
2019-05-31T07:13:32.109Z,1152.00
2019-05-31T07:14:33.100Z,1160.00
2019-05-31T07:15:33.271Z,1176.00
2019-05-31T07:16:33.916Z,1184.00
2019-05-31T07:17:49.199Z,1188.00
2019-05-31T07:18:40.536Z,1180.00
2019-05-31T07:19:32.629Z,1172.00
2019-05-31T07:20:32.359Z,1164.00
2019-05-31T07:21:36.249Z,1160.00
2019-05-31T07:22:33.025Z,1144.00
2019-05-31T07:23:37.988Z,1124.00
2019-05-31T07:24:32.656Z,1100.00
2019-05-31T07:25:33.245Z,1140.00
2019-05-31T07:26:32.981Z,1092.00
2019-05-31T07:27:33.035Z,1108.00
2019-05-31T07:28:33.245Z,1124.00
2019-05-31T07:29:38.482Z,1132.00
2019-05-31T07:30:33.573Z,1136.00
2019-05-31T07:31:32.742Z,1132.00
2019-05-31T07:33:34.254Z,1136.00
2019-05-31T07:34:33.882Z,1136.00
2019-05-31T07:35:34.057Z,1104.00
2019-05-31T07:36:34.216Z,1096.00
2019-05-31T07:37:36.622Z,1144.00
2019-05-31T07:38:32.981Z,1132.00
2019-05-31T07:39:33.039Z,1080.00
2019-05-31T07:40:33.047Z,1040.00
2019-05-31T07:41:33.086Z,1052.00
2019-05-31T07:42:33.109Z,968.00
2019-05-31T07:43:33.540Z,968.00
2019-05-31T07:44:33.343Z,936.00
2019-05-31T07:45:33.420Z,916.00
2019-05-31T07:46:55.940Z,924.00
2019-05-31T07:47:33.615Z,944.00
2019-05-31T07:48:34.169Z,992.00
2019-05-31T07:50:34.437Z,1112.00
2019-05-31T07:51:34.284Z,1152.00
2019-05-31T07:52:34.551Z,1156.00
2019-05-31T07:53:34.629Z,1156.00
2019-05-31T07:54:34.661Z,1148.00
2019-05-31T07:55:34.678Z,1140.00
2019-05-31T07:56:34.844Z,1136.00
2019-05-31T07:57:33.632Z,1128.00
2019-05-31T07:58:33.665Z,1112.00
2019-05-31T07:59:33.795Z,1112.00
2019-05-31T08:00:34.975Z,1116.00
2019-05-31T08:01:34.841Z,1116.00
2019-05-31T08:02:34.891Z,1116.00
2019-05-31T08:03:35.189Z,1112.00
2019-05-31T08:04:35.086Z,1112.00
2019-05-31T08:05:33.919Z,1116.00
2019-05-31T08:06:37.118Z,1116.00
2019-05-31T08:07:35.488Z,1124.00
2019-05-31T08:08:37.887Z,1124.00
2019-05-31T08:09:35.834Z,1128.00
2019-05-31T08:10:35.351Z,1132.00
2019-05-31T08:11:35.250Z,1132.00
2019-05-31T08:12:35.572Z,1128.00
2019-05-31T08:13:35.512Z,1128.00
2019-05-31T08:14:35.402Z,1128.00
2019-05-31T08:15:35.650Z,1124.00
2019-05-31T08:17:39.463Z,1136.00
2019-05-31T08:19:35.394Z,1140.00
2019-05-31T08:20:35.723Z,1136.00
2019-05-31T08:21:36.163Z,1140.00
2019-05-31T08:22:35.697Z,1140.00
2019-05-31T08:24:34.867Z,1152.00
2019-05-31T08:25:34.718Z,1160.00
2019-05-31T08:26:35.897Z,1156.00
2019-05-31T08:27:34.718Z,1164.00
2019-05-31T08:28:34.717Z,1160.00
2019-05-31T08:29:34.738Z,1164.00
2019-05-31T08:30:34.793Z,1160.00
2019-05-31T08:32:34.850Z,1188.00
2019-05-31T08:33:35.432Z,1192.00
2019-05-31T08:34:34.921Z,1204.00
2019-05-31T08:35:34.957Z,1208.00
2019-05-31T08:36:35.220Z,1212.00
2019-05-31T08:37:36.571Z,1212.00
2019-05-31T08:38:35.061Z,1216.00
2019-05-31T08:39:35.099Z,1216.00
2019-05-31T08:40:38.682Z,1220.00
2019-05-31T08:41:35.163Z,1216.00
2019-05-31T08:42:35.195Z,1216.00
2019-05-31T08:43:35.468Z,1224.00
2019-05-31T08:44:36.851Z,1240.00
2019-05-31T08:45:35.295Z,1220.00
2019-05-31T08:46:35.334Z,1212.00
2019-05-31T08:48:35.648Z,1208.00
2019-05-31T08:49:45.923Z,1196.00
2019-05-31T08:50:35.476Z,1192.00
2019-05-31T08:51:35.521Z,1180.00
2019-05-31T08:52:43.524Z,1180.00
2019-05-31T08:53:35.799Z,1176.00
2019-05-31T08:54:35.617Z,1184.00
2019-05-31T08:55:35.846Z,1188.00
2019-05-31T08:56:35.995Z,1180.00
2019-05-31T08:57:36.028Z,1188.00
2019-05-31T08:58:36.099Z,1188.00
2019-05-31T08:59:35.910Z,1184.00
2019-05-31T09:00:36.380Z,1200.00
2019-05-31T09:02:36.268Z,1208.00
2019-05-31T09:04:36.308Z,1204.00
2019-05-31T09:05:36.582Z,1200.00
2019-05-31T09:06:36.339Z,1196.00
2019-05-31T09:07:36.494Z,1188.00
2019-05-31T09:08:36.501Z,1188.00
2019-05-31T09:09:36.591Z,1192.00
2019-05-31T09:10:36.698Z,1188.00
2019-05-31T09:11:38.548Z,1184.00
2019-05-31T09:12:36.630Z,1188.00
2019-05-31T09:13:37.882Z,1196.00
2019-05-31T09:15:36.651Z,1200.00
2019-05-31T09:16:36.904Z,1212.00
2019-05-31T09:17:38.479Z,1208.00
2019-05-31T09:18:36.686Z,1216.00
2019-05-31T09:19:54.938Z,1236.00
2019-05-31T09:22:36.889Z,1324.00
2019-05-31T09:23:36.950Z,1368.00
2019-05-31T09:24:38.114Z,1448.00
2019-05-31T09:25:37.050Z,1508.00
2019-05-31T09:26:39.469Z,1552.00
2019-05-31T09:27:49.647Z,1636.00
2019-05-31T09:28:36.805Z,1720.00
2019-05-31T09:29:54.202Z,1812.00
2019-05-31T09:30:36.870Z,1884.00
2019-05-31T09:31:38.338Z,1940.00
2019-05-31T09:32:37.943Z,1900.00
2019-05-31T09:33:38.213Z,1984.00
2019-05-31T09:34:37.011Z,1940.00
2019-05-31T09:35:37.948Z,1844.00
2019-05-31T09:36:37.084Z,1964.00
2019-05-31T09:37:37.184Z,2284.00
2019-05-31T09:38:37.148Z,2160.00
2019-05-31T09:39:41.382Z,2184.00
2019-05-31T09:41:39.423Z,2020.00
2019-05-31T09:42:37.453Z,1960.00
2019-05-31T09:43:37.400Z,1976.00
2019-05-31T09:44:37.542Z,1864.00
2019-05-31T09:46:37.727Z,1804.00
2019-05-31T09:47:37.777Z,1668.00
2019-05-31T09:48:37.802Z,1840.00
2019-05-31T09:49:37.718Z,2108.00
2019-05-31T09:50:37.639Z,2388.00
2019-05-31T09:51:38.330Z,2312.00
2019-05-31T09:52:38.391Z,2788.00
2019-05-31T09:53:37.858Z,3244.00
2019-05-31T09:54:47.402Z,3296.00
2019-05-31T09:55:37.813Z,3488.00
2019-05-31T09:56:39.343Z,3700.00
2019-05-31T09:57:40.060Z,3760.00
2019-05-31T09:58:37.958Z,3516.00
2019-05-31T09:59:38.795Z,3044.00
2019-05-31T10:00:39.522Z,2592.00
2019-05-31T10:01:38.670Z,2152.00
2019-05-31T10:02:38.408Z,2088.00
2019-05-31T10:03:39.402Z,2280.00
2019-05-31T10:04:38.173Z,2808.00
2019-05-31T10:05:38.220Z,2928.00
2019-05-31T10:06:38.389Z,2800.00
2019-05-31T10:08:41.288Z,2648.00
2019-05-31T10:09:38.353Z,2520.00
2019-05-31T10:10:41.048Z,2328.00
2019-05-31T10:11:39.957Z,2084.00
2019-05-31T10:12:39.449Z,2252.00
2019-05-31T10:13:38.531Z,2412.00
2019-05-31T10:14:39.557Z,2360.00
2019-05-31T10:15:39.329Z,2200.00
2019-05-31T10:16:38.929Z,2424.00
2019-05-31T10:17:40.327Z,2908.00
2019-05-31T10:18:39.278Z,3048.00
2019-05-31T10:19:39.351Z,2564.00
2019-05-31T10:20:39.701Z,2200.00
2019-05-31T10:21:38.977Z,2164.00
2019-05-31T10:22:39.792Z,2140.00
2019-05-31T10:23:51.645Z,2140.00
2019-05-31T10:25:40.613Z,2152.00
2019-05-31T10:26:38.968Z,2364.00
2019-05-31T10:27:39.250Z,2540.00
2019-05-31T10:29:39.325Z,2732.00
2019-05-31T10:30:39.367Z,2376.00
2019-05-31T10:31:39.271Z,2208.00
2019-05-31T10:33:39.690Z,2328.00
2019-05-31T10:34:40.021Z,2396.00
2019-05-31T10:35:40.064Z,2572.00
2019-05-31T10:36:39.689Z,2732.00
2019-05-31T10:37:40.403Z,2668.00
2019-05-31T10:38:40.371Z,2328.00
2019-05-31T10:39:40.863Z,2296.00
2019-05-31T10:40:39.910Z,2368.00
2019-05-31T10:41:39.876Z,2212.00
2019-05-31T10:42:39.998Z,2236.00
2019-05-31T10:43:40.117Z,2372.00
2019-05-31T10:44:40.192Z,2792.00
2019-05-31T10:45:40.442Z,3104.00
2019-05-31T10:46:41.052Z,3000.00
2019-05-31T10:48:40.259Z,2908.00
2019-05-31T10:49:40.232Z,3116.00
2019-05-31T10:50:54.982Z,3668.00
2019-05-31T10:52:42.029Z,4144.00
2019-05-31T10:53:40.232Z,4072.00
2019-05-31T10:54:44.248Z,3616.00
2019-05-31T10:55:40.310Z,3384.00
2019-05-31T10:56:40.289Z,3564.00
2019-05-31T10:57:40.517Z,3648.00
2019-05-31T10:58:40.437Z,3748.00
2019-05-31T10:59:41.300Z,3812.00
2019-05-31T11:00:42.604Z,3728.00
2019-05-31T11:01:40.478Z,3404.00
2019-05-31T11:02:40.541Z,3304.00
2019-05-31T11:03:40.826Z,3400.00
2019-05-31T11:04:40.804Z,3144.00
2019-05-31T11:05:41.953Z,2828.00
2019-05-31T11:06:40.970Z,2772.00
2019-05-31T11:07:40.953Z,2728.00
2019-05-31T11:08:41.039Z,3296.00
2019-05-31T11:09:41.001Z,3732.00
2019-05-31T11:10:41.647Z,3912.00
2019-05-31T11:11:42.707Z,3728.00
2019-05-31T11:12:41.306Z,3052.00
2019-05-31T11:13:41.259Z,2544.00
2019-05-31T11:14:41.211Z,2572.00
2019-05-31T11:15:46.673Z,2280.00
2019-05-31T11:17:47.067Z,2220.00
2019-05-31T11:20:00.386Z,2252.00
2019-05-31T11:20:41.506Z,2260.00
2019-05-31T11:21:41.513Z,2400.00
2019-05-31T11:22:42.318Z,2664.00
2019-05-31T11:23:41.715Z,2928.00
2019-05-31T11:24:41.351Z,3060.00
2019-05-31T11:25:42.089Z,3132.00
2019-05-31T11:26:42.870Z,3220.00
2019-05-31T11:27:42.175Z,2876.00
2019-05-31T11:28:41.994Z,2340.00
2019-05-31T11:29:49.592Z,2388.00
2019-05-31T11:30:42.127Z,2464.00
2019-05-31T11:31:42.349Z,2544.00
2019-05-31T11:32:46.415Z,2608.00
2019-05-31T11:33:45.117Z,2724.00
2019-05-31T11:34:42.644Z,2896.00
2019-05-31T11:35:43.397Z,3016.00
2019-05-31T11:37:43.473Z,3168.00
2019-05-31T11:38:42.707Z,3472.00
2019-05-31T11:40:42.900Z,3648.00
2019-05-31T11:41:43.040Z,3796.00
2019-05-31T11:43:01.013Z,3348.00
2019-05-31T11:43:42.665Z,2804.00
2019-05-31T11:44:43.551Z,2800.00
2019-05-31T11:45:42.867Z,2940.00
2019-05-31T11:46:42.453Z,3368.00
2019-05-31T11:47:46.162Z,4024.00
2019-05-31T11:48:42.911Z,4416.00
2019-05-31T11:49:43.246Z,4364.00
2019-05-31T11:50:43.205Z,4136.00
2019-05-31T11:51:42.993Z,4040.00
2019-05-31T11:52:43.349Z,4708.00
2019-05-31T11:53:46.174Z,5004.00
2019-05-31T11:55:10.353Z,5312.00
2019-05-31T11:55:42.960Z,5772.00
2019-05-31T11:56:44.033Z,6344.00
2019-05-31T11:57:43.530Z,6252.00
2019-05-31T11:58:43.712Z,6240.00
2019-05-31T11:59:43.118Z,6124.00
2019-05-31T12:00:43.834Z,6268.00
2019-05-31T12:01:43.309Z,6688.00
2019-05-31T12:02:46.102Z,6936.00
2019-05-31T12:03:42.312Z,7120.00
2019-05-31T12:04:43.899Z,7328.00
2019-05-31T12:05:43.714Z,7364.00
2019-05-31T12:06:43.555Z,7260.00
2019-05-31T12:07:44.380Z,7284.00
2019-05-31T12:08:43.824Z,7184.00
2019-05-31T12:09:43.390Z,6776.00
2019-05-31T12:10:43.126Z,6872.00
2019-05-31T12:11:43.949Z,7360.00
2019-05-31T12:12:43.960Z,7416.00
2019-05-31T12:13:44.279Z,7160.00
2019-05-31T12:14:43.476Z,7252.00
2019-05-31T12:15:44.046Z,7436.00
2019-05-31T12:16:49.281Z,7516.00
2019-05-31T12:17:44.039Z,7596.00
2019-05-31T12:18:43.880Z,7524.00
2019-05-31T12:19:45.257Z,7584.00
2019-05-31T12:20:42.938Z,7004.00
2019-05-31T12:22:43.001Z,7076.00
2019-05-31T12:23:43.039Z,7468.00
2019-05-31T12:24:43.089Z,7008.00
2019-05-31T12:25:43.118Z,6612.00
2019-05-31T12:26:43.247Z,6668.00
2019-05-31T12:27:43.187Z,6964.00
2019-05-31T12:28:43.239Z,7356.00
2019-05-31T12:29:43.773Z,8244.00
2019-05-31T12:30:43.685Z,8380.00
2019-05-31T12:31:43.908Z,8976.00
2019-05-31T12:32:44.863Z,8556.00
2019-05-31T12:33:44.073Z,8356.00
2019-05-31T12:34:44.192Z,8740.00
2019-05-31T12:35:44.234Z,9076.00
2019-05-31T12:36:44.879Z,8772.00
2019-05-31T12:37:44.827Z,8168.00
2019-05-31T12:38:43.599Z,8240.00
2019-05-31T12:39:47.507Z,9000.00
2019-05-31T12:41:43.817Z,10636.00
2019-05-31T12:42:44.706Z,9924.00
2019-05-31T12:44:44.874Z,13344.00
2019-05-31T12:45:44.149Z,11504.00
2019-05-31T12:46:44.858Z,8188.00
2019-05-31T12:47:47.262Z,10988.00
2019-05-31T12:48:45.029Z,15412.00
2019-05-31T12:49:48.290Z,14956.00
2019-05-31T12:50:45.008Z,16092.00
2019-05-31T12:51:44.219Z,16008.00
2019-05-31T12:52:45.231Z,16612.00
2019-05-31T12:53:44.510Z,16424.00
2019-05-31T12:54:44.474Z,10296.00
2019-05-31T12:55:44.857Z,19180.00
2019-05-31T12:56:44.257Z,18852.00
2019-05-31T12:57:45.100Z,16480.00
2019-05-31T12:58:44.902Z,21216.00
2019-05-31T12:59:45.138Z,21088.00
2019-05-31T13:00:45.132Z,8464.00
2019-05-31T13:01:45.558Z,23904.00
2019-05-31T13:02:49.122Z,25472.00
2019-05-31T13:03:45.574Z,13624.00
2019-05-31T13:04:45.938Z,25536.00
2019-05-31T13:05:45.466Z,20512.00
2019-05-31T13:06:45.690Z,8864.00
2019-05-31T13:07:46.369Z,7824.00
2019-05-31T13:08:45.842Z,5620.00
2019-05-31T13:10:46.050Z,24928.00
2019-05-31T13:11:46.294Z,7452.00
2019-05-31T13:12:45.160Z,28992.00
2019-05-31T13:13:44.891Z,26176.00
2019-05-31T13:14:45.910Z,27552.00
2019-05-31T13:15:44.982Z,27232.00
2019-05-31T13:16:45.010Z,15872.00
2019-05-31T13:17:46.285Z,29184.00
2019-05-31T13:18:45.431Z,30880.00
2019-05-31T13:19:45.878Z,32640.00
2019-05-31T13:20:45.616Z,31680.00